Flugplatz Koblenz-Winningen

Für EDRK sind keine METAR/TAF Berichte vorhanden.
Es werden die Flugwettermeldungen vom Flugplatz Buchel Airport in 37 km Entfernung angezeigt.

Bericht für ETSB

vom 08.03. um 18:20 UTC

Wind 5 kt aus 60°

Sichtweite 8000 m

Temperatur 2.0°C

Taupunkt -1.0°C

Luftfeuchtigkeit 80%

Luftdruck 1020 hPa

ETSB 081820Z AUTO 06005KT 8000 // ////// 02/M01 Q1020 ///

Prognose für ETSB

vom 08.03. um 14:22 UTC

Zwischen 15:00 UTC und 00:00 UTC

Wind 6 kt aus 20°

Sichtweite 10 km oder mehr

keine signifikanten Wettererscheinungen

aufgelockert bewölkt in 2500 ft

aufgebrochene Bewölkung in 5000 ft


Zwischen 15:00 UTC und 00:00 UTC zeitweise

Wind 6 kt aus 40°

Sichtweite 6000 m

keine signifikanten Wettererscheinungen

aufgebrochene Bewölkung in 1500 ft

aufgebrochene Bewölkung in 4000 ft

TAF ETSB 081422Z 0815/0824 02006KT 9999 NSW SCT025 BKN050 TEMPO 0815/0824 04006KT 6000 NSW BKN015 BKN040 BY ETGL
Impressum